Time;durP1;ratioP1;P1;durP2;ratioP2;P2;SDS_P1;SDS_P2;PMS_P1;PMS_P2;Temp;Humidity;BMP_temperature;BMP_pressure;BME280_temperature;BME280_humidity;BME280_pressure;Samples;Min_cycle;Max_cycle;Signal;HPM_P1;HPM_P2
2023/09/23 05:18:17;;;;;;;;;;;;;;;;;;5032404;28;19944;-47
2023/09/23 05:20:43;;;;;;;;;;;;;;;;;;5032857;28;19917;-45
2023/09/23 05:23:09;;;;;;;;;;;;;;;;;;5033147;28;19920;-44
2023/09/23 05:25:37;;;;;;;;;;;;;;;;;;5029699;28;19909;-48
2023/09/23 05:28:04;;;;;;;;;;;;;;;;;;5032882;28;19913;-45
2023/09/23 05:30:30;;;;;;;;;;;;;;;;;;5032595;28;19913;-46
2023/09/23 05:32:55;;;;;;;;;;;;;;;;;;5032575;28;19909;-45
2023/09/23 05:35:21;;;;;;;;;;;;;;;;;;5032652;28;19916;-47
2023/09/23 05:37:47;;;;;;;;;;;;;;;;;;5030622;28;20403;-47
2023/09/23 05:40:26;;;;;;;;;;;;;;;;;;5031909;28;19913;-47
2023/09/23 05:42:52;;;;;;;;;;;;;;;;;;5032182;28;19963;-45
2023/09/23 05:45:18;;;;;;;;;;;;;;;;;;5032388;28;19913;-46
2023/09/23 05:47:45;;;;;;;;;;;;;;;;;;5032820;28;19909;-49
2023/09/23 05:50:11;;;;;;;;;;;;;;;;;;5032423;28;19916;-45
2023/09/23 05:52:36;;;;;;;;;;;;;;;;;;5032520;28;19913;-46
2023/09/23 05:55:03;;;;;;;;;;;;;;;;;;5032108;28;19951;-44
2023/09/23 05:57:29;;;;;;;;;;;;;;;;;;5032518;28;19909;-46
2023/09/23 05:59:55;;;;;;;;;;;;;;;;;;5031526;28;20075;-48
2023/09/23 06:02:21;;;;;;;;;;;;;;;;;;5030448;28;19960;-44
2023/09/23 06:04:47;;;;;;;;;;;;;;;;;;5031953;28;20354;-48
2023/09/23 06:07:13;;;;;;;;;;;;;;;;;;5037994;28;19929;-46
2023/09/23 06:09:39;;;;;;;;;;;;;;;;;;5040227;28;19913;-48
2023/09/23 06:12:07;;;;;;;;;;;;;;;;;;5031241;28;19910;-47
2023/09/23 06:14:33;;;;;;;;;;;;;;;;;;5030898;28;19906;-47
2023/09/23 06:16:59;;;;;;;;;;;;;;;;;;5030919;28;20103;-44
2023/09/23 06:19:25;;;;;;;;;;;;;;;;;;5033354;28;20315;-46
2023/09/23 06:21:51;;;;;;;;;;;;;;;;;;5030219;28;19991;-46
2023/09/23 06:24:17;;;;;;;;;;;;;;;;;;5044986;28;20383;-45
2023/09/23 06:26:43;;;;;;;;;;;;;;;;;;5050102;28;19908;-45
2023/09/23 06:29:09;;;;;;;;;;;;;;;;;;5048637;28;19912;-45
2023/09/23 06:31:35;;;;;;;;;;;;;;;;;;5041079;28;19920;-47
2023/09/23 06:34:01;;;;;;;;;;;;;;;;;;5050576;28;19909;-47
2023/09/23 06:36:27;;;;;;;;;;;;;;;;;;5035290;28;20299;-47
2023/09/23 06:38:52;;;;;;;;;;;;;;;;;;5030672;28;19948;-47
2023/09/23 06:41:19;;;;;;;;;;;;;;;;;;5030160;28;19921;-47
2023/09/23 06:43:44;;;;;;;;;;;;;;;;;;5030331;28;20435;-46
2023/09/23 06:46:11;;;;;;;;;;;;;;;;;;5030293;28;19996;-46
2023/09/23 06:48:37;;;;;;;;;;;;;;;;;;5034281;28;19917;-44
2023/09/23 06:51:03;;;;;;;;;;;;;;;;;;5030059;28;19909;-46
2023/09/23 06:53:29;;;;;;;;;;;;;;;;;;5029276;28;20375;-47
2023/09/23 06:55:55;;;;;;;;;;;;;;;;;;5045719;28;19912;-46
2023/09/23 06:58:21;;;;;;;;;;;;;;;;;;5049985;28;19917;-46
2023/09/23 07:00:47;;;;;;;;;;;;;;;;;;5049827;28;20003;-45
2023/09/23 07:03:13;;;;;;;;;;;;;;;;;;5050128;28;20007;-45
2023/09/23 07:05:39;;;;;;;;;;;;;;;;;;5049664;28;19909;-46
2023/09/23 07:08:04;;;;;;;;;;;;;;;;;;5032344;28;19913;-45
2023/09/23 07:10:30;;;;;;;;;;;;;;;;;;5046035;28;19919;-45
2023/09/23 07:12:56;;;;;;;;;;;;;;;;;;5050142;28;19952;-48
2023/09/23 07:15:23;;;;;;;;;;;;;;;;;;5034101;28;19921;-45
2023/09/23 07:17:49;;;;;;;;;;;;;;;;;;5032298;28;20326;-48
2023/09/23 07:20:15;;;;;;;;;;;;;;;;;;5035414;28;19917;-44
2023/09/23 07:22:41;;;;;;;;;;;;;;;;;;5037375;28;19917;-45
2023/09/23 07:25:06;;;;;;;;;;;;;;;;;;5032329;28;19971;-45
2023/09/23 07:27:32;;;;;;;;;;;;;;;;;;5048932;28;19945;-47
2023/09/23 07:29:58;;;;;;;;;;;;;;;;;;5049894;28;20302;-45
2023/09/23 07:32:24;;;;;;;;;;;;;;;;;;5044790;28;19912;-46
2023/09/23 07:34:50;;;;;;;;;;;;;;;;;;5047548;28;19927;-47
2023/09/23 07:37:16;;;;;;;;;;;;;;;;;;5040036;28;19912;-46
2023/09/23 07:39:42;;;;;;;;;;;;;;;;;;5032031;28;19917;-47
2023/09/23 07:42:08;;;;;;;;;;;;;;;;;;5011607;28;19909;-45
2023/09/23 07:44:33;;;;;;;;;;;;;;;;;;5029269;28;20372;-45
2023/09/23 07:46:59;;;;;;;;;;;;;;;;;;5029401;28;19949;-46
2023/09/23 07:49:25;;;;;;;;;;;;;;;;;;5029666;28;19913;-47
2023/09/23 07:51:53;;;;;;;;;;;;;;;;;;5028806;28;19936;-48
2023/09/23 07:54:19;;;;;;;;;;;;;;;;;;5029582;28;20337;-46
2023/09/23 07:56:46;;;;;;;;;;;;;;;;;;5028892;28;20375;-48
2023/09/23 07:59:11;;;;;;;;;;;;;;;;;;5029252;28;19999;-46
2023/09/23 08:01:37;;;;;;;;;;;;;;;;;;5030531;28;20414;-47
2023/09/23 08:04:03;;;;;;;;;;;;;;;;;;5033422;28;19910;-47
2023/09/23 08:06:30;;;;;;;;;;;;;;;;;;5033836;28;19920;-49
2023/09/23 08:08:55;;;;;;;;;;;;;;;;;;5033698;28;19909;-48
2023/09/23 08:11:21;;;;;;;;;;;;;;;;;;5033029;28;20311;-46
2023/09/23 08:13:47;;;;;;;;;;;;;;;;;;5033280;28;19963;-48
2023/09/23 08:16:13;;;;;;;;;;;;;;;;;;5032861;28;20388;-48
2023/09/23 08:18:40;;;;;;;;;;;;;;;;;;5032953;28;20172;-45
2023/09/23 08:21:06;;;;;;;;;;;;;;;;;;5032923;28;20307;-46
2023/09/23 08:23:32;;;;;;;;;;;;;;;;;;5032792;28;19915;-47
2023/09/23 08:25:58;;;;;;;;;;;;;;;;;;5033041;28;20365;-48
2023/09/23 08:28:24;;;;;;;;;;;;;;;;;;5033321;28;20430;-47
2023/09/23 08:30:50;;;;;;;;;;;;;;;;;;5032933;28;19917;-48
2023/09/23 08:33:16;;;;;;;;;;;;;;;;;;5032744;28;20000;-47
2023/09/23 08:35:42;;;;;;;;;;;;;;;;;;5032572;28;19948;-47
2023/09/23 08:38:08;;;;;;;;;;;;;;;;;;5032438;28;19924;-45
2023/09/23 08:40:34;;;;;;;;;;;;;;;;;;5032840;28;19913;-44
2023/09/23 08:43:01;;;;;;;;;;;;;;;;;;5032490;28;19913;-45
2023/09/23 08:45:27;;;;;;;;;;;;;;;;;;5032982;28;19909;-46
2023/09/23 08:47:52;;;;;;;;;;;;;;;;;;5032268;28;20302;-48
2023/09/23 08:50:18;;;;;;;;;;;;;;;;;;5032595;28;19948;-47
2023/09/23 08:52:44;;;;;;;;;;;;;;;;;;5032579;28;20371;-46
2023/09/23 08:55:10;;;;;;;;;;;;;;;;;;5032507;28;19913;-46
2023/09/23 08:57:36;;;;;;;;;;;;;;;;;;5032092;28;19909;-48
2023/09/23 09:00:07;;;;;;;;;;;;;;;;;;5032231;28;19913;-45
2023/09/23 09:02:33;;;;;;;;;;;;;;;;;;5032038;28;20465;-49
2023/09/23 09:04:59;;;;;;;;;;;;;;;;;;5032837;28;19956;-48
2023/09/23 09:07:25;;;;;;;;;;;;;;;;;;5031990;28;19932;-47
2023/09/23 09:09:51;;;;;;;;;;;;;;;;;;5032107;28;19913;-47
2023/09/23 09:12:17;;;;;;;;;;;;;;;;;;5031771;28;19909;-44
2023/09/23 09:14:44;;;;;;;;;;;;;;;;;;5032122;28;19915;-45
2023/09/23 09:17:12;;;;;;;;;;;;;;;;;;5032307;28;19917;-47
2023/09/23 09:19:39;;;;;;;;;;;;;;;;;;5031693;28;19917;-46
2023/09/23 09:22:05;;;;;;;;;;;;;;;;;;5031826;28;19909;-47
2023/09/23 09:24:31;;;;;;;;;;;;;;;;;;5031923;28;19917;-41
2023/09/23 09:26:57;;;;;;;;;;;;;;;;;;5032040;28;20441;-41
2023/09/23 09:29:24;;;;;;;;;;;;;;;;;;5014032;28;19959;-41
2023/09/23 09:31:51;;;;;;;;;;;;;;;;;;5031588;28;19913;-41
2023/09/23 09:34:17;;;;;;;;;;;;;;;;;;5031308;28;20376;-41
2023/09/23 09:36:43;;;;;;;;;;;;;;;;;;5031350;28;19922;-41
2023/09/23 09:39:10;;;;;;;;;;;;;;;;;;5031748;28;19920;-41
2023/09/23 09:41:36;;;;;;;;;;;;;;;;;;5031781;28;20376;-41
2023/09/23 09:44:02;;;;;;;;;;;;;;;;;;5031297;28;19917;-41
2023/09/23 09:46:29;;;;;;;;;;;;;;;;;;5031579;28;19931;-41
2023/09/23 09:48:57;;;;;;;;;;;;;;;;;;5031463;28;19992;-41
2023/09/23 09:51:23;;;;;;;;;;;;;;;;;;5031342;28;19909;-41
2023/09/23 09:53:49;;;;;;;;;;;;;;;;;;5031074;28;20148;-41
2023/09/23 09:56:16;;;;;;;;;;;;;;;;;;5030936;28;20033;-41
2023/09/23 09:58:42;;;;;;;;;;;;;;;;;;5031471;28;19952;-41
2023/09/23 10:01:11;;;;;;;;;;;;;;;;;;5031071;28;20388;-41
2023/09/23 10:03:40;;;;;;;;;;;;;;;;;;5031181;28;19967;-41
2023/09/23 10:06:07;;;;;;;;;;;;;;;;;;5031429;28;20508;-41
2023/09/23 10:08:33;;;;;;;;;;;;;;;;;;5031093;28;19909;-41
2023/09/23 10:10:59;;;;;;;;;;;;;;;;;;5031376;28;20414;-41
2023/09/23 10:13:25;;;;;;;;;;;;;;;;;;5030958;28;19956;-41
2023/09/23 10:15:51;;;;;;;;;;;;;;;;;;5030680;28;19917;-41
2023/09/23 10:18:17;;;;;;;;;;;;;;;;;;5030827;28;19913;-41
2023/09/23 10:20:43;;;;;;;;;;;;;;;;;;5030529;28;19959;-41
2023/09/23 10:23:10;;;;;;;;;;;;;;;;;;5030744;28;19959;-41
2023/09/23 10:25:36;;;;;;;;;;;;;;;;;;5029777;28;19910;-41
2023/09/23 10:28:02;;;;;;;;;;;;;;;;;;5030408;28;20303;-41
2023/09/23 10:30:28;;;;;;;;;;;;;;;;;;5031184;28;19921;-41
2023/09/23 10:32:54;;;;;;;;;;;;;;;;;;5030599;28;19913;-41
2023/09/23 10:35:20;;;;;;;;;;;;;;;;;;5030586;28;20003;-41
2023/09/23 10:37:46;;;;;;;;;;;;;;;;;;5030205;28;20000;-41
2023/09/23 10:40:12;;;;;;;;;;;;;;;;;;5030252;28;20309;-41
2023/09/23 10:42:38;;;;;;;;;;;;;;;;;;5030409;28;19916;-41
2023/09/23 10:45:05;;;;;;;;;;;;;;;;;;5030460;28;19936;-41
2023/09/23 10:47:31;;;;;;;;;;;;;;;;;;5030169;28;20338;-42
2023/09/23 10:49:57;;;;;;;;;;;;;;;;;;5030434;28;19909;-41
2023/09/23 10:52:22;;;;;;;;;;;;;;;;;;5030270;28;19909;-41
2023/09/23 10:54:48;;;;;;;;;;;;;;;;;;5030142;28;19909;-42
2023/09/23 10:57:14;;;;;;;;;;;;;;;;;;5029979;28;19941;-42
2023/09/23 10:59:43;;;;;;;;;;;;;;;;;;5011955;28;20291;-41
2023/09/23 11:02:10;;;;;;;;;;;;;;;;;;5030148;28;19920;-41
2023/09/23 11:04:36;;;;;;;;;;;;;;;;;;5029767;28;19952;-42
2023/09/23 11:07:02;;;;;;;;;;;;;;;;;;5012115;28;19913;-42
2023/09/23 11:09:28;;;;;;;;;;;;;;;;;;5030064;28;19909;-42
2023/09/23 11:11:57;;;;;;;;;;;;;;;;;;5029822;28;20342;-42
2023/09/23 11:14:23;;;;;;;;;;;;;;;;;;5027357;28;19909;-42
2023/09/23 11:16:49;;;;;;;;;;;;;;;;;;5048139;28;19916;-42
2023/09/23 11:19:17;;;;;;;;;;;;;;;;;;5040793;28;20012;-42
2023/09/23 11:21:43;;;;;;;;;;;;;;;;;;5028148;28;19968;-42
2023/09/23 11:24:09;;;;;;;;;;;;;;;;;;5027676;28;19951;-42
2023/09/23 11:26:35;;;;;;;;;;;;;;;;;;5028408;28;19910;-42
2023/09/23 11:29:01;;;;;;;;;;;;;;;;;;5028567;28;19920;-42
2023/09/23 11:31:26;;;;;;;;;;;;;;;;;;5028246;28;19909;-42
2023/09/23 11:33:52;;;;;;;;;;;;;;;;;;5027627;28;20407;-42
2023/09/23 11:36:18;;;;;;;;;;;;;;;;;;5027489;28;19960;-42
2023/09/23 11:38:44;;;;;;;;;;;;;;;;;;5027430;28;19909;-42
2023/09/23 11:41:10;;;;;;;;;;;;;;;;;;5027614;28;19964;-42
2023/09/23 11:43:36;;;;;;;;;;;;;;;;;;5027974;28;19909;-42
2023/09/23 11:46:02;;;;;;;;;;;;;;;;;;5028115;28;19910;-42
2023/09/23 11:48:28;;;;;;;;;;;;;;;;;;5027391;28;19955;-43
2023/09/23 11:50:53;;;;;;;;;;;;;;;;;;5027686;28;19910;-42
2023/09/23 11:53:19;;;;;;;;;;;;;;;;;;5027539;28;19935;-42
2023/09/23 11:55:46;;;;;;;;;;;;;;;;;;5027620;28;19913;-42
2023/09/23 11:58:12;;;;;;;;;;;;;;;;;;5027662;28;20295;-43
2023/09/23 12:00:38;;;;;;;;;;;;;;;;;;5027623;28;19913;-42
2023/09/23 12:03:04;;;;;;;;;;;;;;;;;;5028253;28;19909;-42
2023/09/23 12:05:30;;;;;;;;;;;;;;;;;;5027391;28;19967;-43
2023/09/23 12:07:59;;;;;;;;;;;;;;;;;;5027307;28;19943;-42
2023/09/23 12:10:25;;;;;;;;;;;;;;;;;;5027278;28;19944;-43
2023/09/23 12:12:50;;;;;;;;;;;;;;;;;;5027603;28;19956;-44
2023/09/23 12:15:16;;;;;;;;;;;;;;;;;;5027401;28;19909;-43
2023/09/23 12:17:42;;;;;;;;;;;;;;;;;;5027165;28;19916;-42
2023/09/23 12:20:11;;;;;;;;;;;;;;;;;;5009349;28;19917;-42
2023/09/23 12:22:37;;;;;;;;;;;;;;;;;;5027888;28;19909;-43
2023/09/23 12:25:05;;;;;;;;;;;;;;;;;;5027743;28;19917;-42
2023/09/23 12:27:31;;;;;;;;;;;;;;;;;;5027221;28;19943;-42
2023/09/23 12:29:56;;;;;;;;;;;;;;;;;;5027269;28;19955;-42
2023/09/23 12:32:22;;;;;;;;;;;;;;;;;;5027181;28;20395;-42
2023/09/23 12:34:49;;;;;;;;;;;;;;;;;;5027135;28;19909;-43
2023/09/23 12:37:15;;;;;;;;;;;;;;;;;;5026963;28;20043;-43
2023/09/23 12:39:41;;;;;;;;;;;;;;;;;;5027033;28;20011;-42
2023/09/23 12:42:06;;;;;;;;;;;;;;;;;;5027945;28;19909;-43
2023/09/23 12:44:32;;;;;;;;;;;;;;;;;;5026871;28;19909;-42
2023/09/23 12:46:58;;;;;;;;;;;;;;;;;;5027437;28;19945;-44
2023/09/23 12:49:24;;;;;;;;;;;;;;;;;;5030804;28;19917;-43
2023/09/23 12:51:50;;;;;;;;;;;;;;;;;;5030923;28;19913;-42
2023/09/23 12:54:16;;;;;;;;;;;;;;;;;;5030733;28;19909;-43
2023/09/23 12:56:42;;;;;;;;;;;;;;;;;;5030726;28;20372;-42
2023/09/23 12:59:08;;;;;;;;;;;;;;;;;;5031133;28;19909;-43
2023/09/23 13:01:34;;;;;;;;;;;;;;;;;;5030317;28;20303;-43
2023/09/23 13:03:59;;;;;;;;;;;;;;;;;;5012873;28;20324;-43
2023/09/23 13:06:25;;;;;;;;;;;;;;;;;;5030318;28;19924;-43
2023/09/23 13:08:51;;;;;;;;;;;;;;;;;;5030567;28;20000;-44
2023/09/23 13:11:19;;;;;;;;;;;;;;;;;;5030003;28;19970;-43
2023/09/23 13:13:45;;;;;;;;;;;;;;;;;;5031118;28;19913;-43
2023/09/23 13:16:11;;;;;;;;;;;;;;;;;;5030572;28;20000;-42
2023/09/23 13:18:37;;;;;;;;;;;;;;;;;;5029865;28;19962;-43
2023/09/23 13:21:03;;;;;;;;;;;;;;;;;;5029846;28;19924;-42
2023/09/23 13:23:29;;;;;;;;;;;;;;;;;;5030201;28;20291;-42
2023/09/23 13:25:55;;;;;;;;;;;;;;;;;;5029817;28;19994;-42
2023/09/23 13:28:21;;;;;;;;;;;;;;;;;;5030197;28;19915;-42
2023/09/23 13:30:47;;;;;;;;;;;;;;;;;;5030575;28;19912;-43
2023/09/23 13:33:12;;;;;;;;;;;;;;;;;;5029911;28;19909;-43
2023/09/23 13:35:39;;;;;;;;;;;;;;;;;;5029862;28;19916;-42
2023/09/23 13:38:06;;;;;;;;;;;;;;;;;;5029455;28;19955;-42
2023/09/23 13:40:33;;;;;;;;;;;;;;;;;;5029881;28;19967;-43
2023/09/23 13:42:58;;;;;;;;;;;;;;;;;;5011764;28;19915;-43
2023/09/23 13:45:24;;;;;;;;;;;;;;;;;;5029591;28;19909;-42
2023/09/23 13:47:50;;;;;;;;;;;;;;;;;;5012076;28;19944;-43
2023/09/23 13:50:16;;;;;;;;;;;;;;;;;;5030183;28;19955;-42
2023/09/23 13:52:42;;;;;;;;;;;;;;;;;;5029817;28;19917;-44
2023/09/23 13:55:09;;;;;;;;;;;;;;;;;;5029543;28;20141;-43
2023/09/23 13:57:35;;;;;;;;;;;;;;;;;;5029485;28;20316;-43
2023/09/23 14:00:02;;;;;;;;;;;;;;;;;;5028202;28;19928;-43
2023/09/23 14:02:28;;;;;;;;;;;;;;;;;;5029315;28;19909;-44
2023/09/23 14:04:54;;;;;;;;;;;;;;;;;;5029276;28;20295;-43
2023/09/23 14:07:20;;;;;;;;;;;;;;;;;;5029729;28;19959;-43
2023/09/23 14:09:46;;;;;;;;;;;;;;;;;;5030186;28;20018;-46
2023/09/23 14:12:12;;;;;;;;;;;;;;;;;;5029160;28;20043;-44
2023/09/23 14:14:38;;;;;;;;;;;;;;;;;;5029186;28;19992;-43
2023/09/23 14:17:04;;;;;;;;;;;;;;;;;;5028959;28;20368;-43
2023/09/23 14:19:31;;;;;;;;;;;;;;;;;;5029272;28;19921;-42
2023/09/23 14:21:57;;;;;;;;;;;;;;;;;;5028896;28;19970;-44
2023/09/23 14:24:23;;;;;;;;;;;;;;;;;;5029309;28;20006;-43
2023/09/23 14:26:51;;;;;;;;;;;;;;;;;;5028247;28;21446;-43
2023/09/23 14:29:17;;;;;;;;;;;;;;;;;;5029640;28;19910;-44
2023/09/23 14:31:43;;;;;;;;;;;;;;;;;;5028682;28;19909;-44
2023/09/23 14:34:09;;;;;;;;;;;;;;;;;;5028802;28;20288;-43
2023/09/23 14:36:35;;;;;;;;;;;;;;;;;;5028848;28;20233;-43
2023/09/23 14:39:03;;;;;;;;;;;;;;;;;;5011086;28;19909;-46
2023/09/23 14:41:29;;;;;;;;;;;;;;;;;;5028614;28;19913;-43
2023/09/23 14:43:55;;;;;;;;;;;;;;;;;;5028770;28;19909;-45
2023/09/23 14:46:21;;;;;;;;;;;;;;;;;;5028920;28;20003;-44
2023/09/23 14:48:47;;;;;;;;;;;;;;;;;;5028825;28;19921;-44
2023/09/23 14:51:13;;;;;;;;;;;;;;;;;;5028411;28;19913;-43
2023/09/23 14:53:38;;;;;;;;;;;;;;;;;;5028658;28;19910;-46
2023/09/23 14:56:04;;;;;;;;;;;;;;;;;;5028274;28;19909;-44
2023/09/23 14:58:30;;;;;;;;;;;;;;;;;;5028661;28;20015;-47
2023/09/23 15:00:56;;;;;;;;;;;;;;;;;;5028312;28;19913;-44
2023/09/23 15:03:22;;;;;;;;;;;;;;;;;;5028701;28;19917;-43
2023/09/23 15:05:48;;;;;;;;;;;;;;;;;;5028881;28;19906;-43
2023/09/23 15:08:14;;;;;;;;;;;;;;;;;;5028557;28;19917;-44
2023/09/23 15:10:41;;;;;;;;;;;;;;;;;;5027166;28;19948;-43
2023/09/23 15:13:07;;;;;;;;;;;;;;;;;;5029164;28;19909;-46
2023/09/23 15:15:33;;;;;;;;;;;;;;;;;;5027735;28;19987;-43
2023/09/23 15:17:59;;;;;;;;;;;;;;;;;;5028688;28;19919;-44
2023/09/23 15:20:25;;;;;;;;;;;;;;;;;;5027956;28;19985;-44
2023/09/23 15:22:50;;;;;;;;;;;;;;;;;;5010335;28;19914;-43
2023/09/23 15:25:16;;;;;;;;;;;;;;;;;;5028067;28;19909;-44
2023/09/23 15:27:42;;;;;;;;;;;;;;;;;;5027659;28;19909;-44
2023/09/23 15:30:11;;;;;;;;;;;;;;;;;;5027999;28;19913;-46
2023/09/23 15:32:37;;;;;;;;;;;;;;;;;;5027682;28;19944;-46
2023/09/23 15:35:03;;;;;;;;;;;;;;;;;;5027958;28;20408;-47
2023/09/23 15:37:29;;;;;;;;;;;;;;;;;;5028448;28;20384;-43
2023/09/23 15:39:55;;;;;;;;;;;;;;;;;;5027630;28;19913;-45
2023/09/23 15:42:22;;;;;;;;;;;;;;;;;;5027638;28;19909;-45
2023/09/23 15:44:48;;;;;;;;;;;;;;;;;;5027696;28;19909;-43
2023/09/23 15:47:14;;;;;;;;;;;;;;;;;;5027677;28;19916;-44
2023/09/23 15:49:40;;;;;;;;;;;;;;;;;;5027831;28;20430;-44
2023/09/23 15:52:06;;;;;;;;;;;;;;;;;;5027337;28;19917;-43
2023/09/23 15:54:32;;;;;;;;;;;;;;;;;;5028794;28;19916;-44
2023/09/23 15:56:58;;;;;;;;;;;;;;;;;;5027784;28;19910;-43
2023/09/23 15:59:24;;;;;;;;;;;;;;;;;;5009570;28;20285;-43
2023/09/23 16:01:50;;;;;;;;;;;;;;;;;;5027439;28;19920;-43
2023/09/23 16:04:16;;;;;;;;;;;;;;;;;;5027738;28;19909;-44
2023/09/23 16:06:42;;;;;;;;;;;;;;;;;;5027348;28;19909;-44
2023/09/23 16:09:08;;;;;;;;;;;;;;;;;;5027624;28;19909;-43
2023/09/23 16:11:34;;;;;;;;;;;;;;;;;;5027454;28;19909;-43
2023/09/23 16:14:00;;;;;;;;;;;;;;;;;;5010351;28;19917;-43
2023/09/23 16:16:26;;;;;;;;;;;;;;;;;;5027389;28;20044;-44
2023/09/23 16:18:51;;;;;;;;;;;;;;;;;;5027349;28;19956;-43
2023/09/23 16:21:17;;;;;;;;;;;;;;;;;;5027286;28;20275;-43
2023/09/23 16:23:43;;;;;;;;;;;;;;;;;;5030614;28;20000;-44
2023/09/23 16:26:09;;;;;;;;;;;;;;;;;;5031334;28;20154;-44
2023/09/23 16:28:35;;;;;;;;;;;;;;;;;;5031874;28;20336;-42
2023/09/23 16:31:01;;;;;;;;;;;;;;;;;;5031852;28;19909;-43
2023/09/23 16:33:27;;;;;;;;;;;;;;;;;;5031047;28;19954;-44
2023/09/23 16:35:53;;;;;;;;;;;;;;;;;;5031311;28;19916;-44
2023/09/23 16:38:19;;;;;;;;;;;;;;;;;;5031142;28;19910;-43
2023/09/23 16:40:45;;;;;;;;;;;;;;;;;;5030980;28;19920;-44
2023/09/23 16:43:11;;;;;;;;;;;;;;;;;;5030867;28;19916;-43
2023/09/23 16:45:38;;;;;;;;;;;;;;;;;;5031222;28;20384;-44
2023/09/23 16:48:04;;;;;;;;;;;;;;;;;;5031507;28;19909;-43
2023/09/23 16:50:30;;;;;;;;;;;;;;;;;;5031019;28;19924;-43
2023/09/23 16:52:56;;;;;;;;;;;;;;;;;;5030625;28;19913;-43
2023/09/23 16:55:21;;;;;;;;;;;;;;;;;;5030923;28;19909;-43
2023/09/23 16:57:47;;;;;;;;;;;;;;;;;;5030561;28;19913;-43
2023/09/23 17:00:14;;;;;;;;;;;;;;;;;;5030749;28;19913;-42
2023/09/23 17:02:40;;;;;;;;;;;;;;;;;;5030450;28;19920;-43
2023/09/23 17:05:07;;;;;;;;;;;;;;;;;;5030665;28;19909;-44
2023/09/23 17:07:34;;;;;;;;;;;;;;;;;;5031321;28;19915;-43
2023/09/23 17:10:00;;;;;;;;;;;;;;;;;;5030475;28;19913;-43
2023/09/23 17:12:26;;;;;;;;;;;;;;;;;;5030381;28;20287;-43
2023/09/23 17:14:52;;;;;;;;;;;;;;;;;;5030383;28;19966;-43
2023/09/23 17:17:18;;;;;;;;;;;;;;;;;;5030298;28;19913;-43
2023/09/23 17:19:45;;;;;;;;;;;;;;;;;;5030117;28;19944;-44
2023/09/23 17:22:11;;;;;;;;;;;;;;;;;;5030192;28;19986;-44
2023/09/23 17:24:37;;;;;;;;;;;;;;;;;;5030607;28;20398;-42
2023/09/23 17:27:03;;;;;;;;;;;;;;;;;;5012966;28;20047;-44
2023/09/23 17:29:29;;;;;;;;;;;;;;;;;;5030424;28;19909;-43
2023/09/23 17:31:55;;;;;;;;;;;;;;;;;;5030038;28;19971;-43
2023/09/23 17:34:21;;;;;;;;;;;;;;;;;;5030015;28;20008;-44
2023/09/23 17:36:47;;;;;;;;;;;;;;;;;;5029733;28;20288;-43
2023/09/23 17:39:13;;;;;;;;;;;;;;;;;;5029803;28;20402;-43
2023/09/23 17:41:39;;;;;;;;;;;;;;;;;;5029879;28;20336;-43
2023/09/23 17:44:05;;;;;;;;;;;;;;;;;;5030822;28;19951;-43
2023/09/23 17:46:31;;;;;;;;;;;;;;;;;;5029923;28;19931;-43
2023/09/23 17:48:58;;;;;;;;;;;;;;;;;;5029686;28;19909;-43
2023/09/23 17:51:24;;;;;;;;;;;;;;;;;;5030155;28;19909;-43
2023/09/23 17:53:50;;;;;;;;;;;;;;;;;;5029439;28;20000;-43
2023/09/23 17:56:16;;;;;;;;;;;;;;;;;;5029541;28;19909;-43
2023/09/23 17:58:43;;;;;;;;;;;;;;;;;;5029560;28;19954;-42
2023/09/23 18:01:09;;;;;;;;;;;;;;;;;;5029820;28;20387;-42
2023/09/23 18:03:34;;;;;;;;;;;;;;;;;;5030148;28;19909;-44
2023/09/23 18:06:01;;;;;;;;;;;;;;;;;;5029453;28;19909;-42
2023/09/23 18:08:27;;;;;;;;;;;;;;;;;;5029111;28;19909;-43
2023/09/23 18:10:53;;;;;;;;;;;;;;;;;;5029598;28;19913;-43
2023/09/23 18:13:21;;;;;;;;;;;;;;;;;;5029483;28;19910;-43
2023/09/23 18:15:46;;;;;;;;;;;;;;;;;;5029507;28;19909;-43
2023/09/23 18:18:12;;;;;;;;;;;;;;;;;;5028910;28;20003;-42
2023/09/23 18:20:38;;;;;;;;;;;;;;;;;;5030387;28;19913;-42
2023/09/23 18:23:05;;;;;;;;;;;;;;;;;;5011234;28;19909;-43
2023/09/23 18:25:32;;;;;;;;;;;;;;;;;;5029288;28;20000;-43
2023/09/23 18:27:58;;;;;;;;;;;;;;;;;;5029067;28;20370;-42
2023/09/23 18:30:24;;;;;;;;;;;;;;;;;;5029292;28;19909;-42
2023/09/23 18:32:50;;;;;;;;;;;;;;;;;;5028831;28;20390;-42
2023/09/23 18:35:16;;;;;;;;;;;;;;;;;;5029087;28;19909;-42
2023/09/23 18:37:45;;;;;;;;;;;;;;;;;;5028745;28;19909;-42
2023/09/23 18:40:10;;;;;;;;;;;;;;;;;;5029179;28;19921;-42
2023/09/23 18:42:36;;;;;;;;;;;;;;;;;;5029600;28;19910;-43
2023/09/23 18:45:02;;;;;;;;;;;;;;;;;;5027994;28;19963;-42
2023/09/23 18:47:28;;;;;;;;;;;;;;;;;;5028680;28;19932;-42
2023/09/23 18:49:54;;;;;;;;;;;;;;;;;;5028640;28;19944;-43
2023/09/23 18:52:20;;;;;;;;;;;;;;;;;;5028474;28;20383;-42
2023/09/23 18:54:46;;;;;;;;;;;;;;;;;;5028629;28;19932;-42
2023/09/23 18:57:13;;;;;;;;;;;;;;;;;;5028596;28;20043;-42
2023/09/23 18:59:39;;;;;;;;;;;;;;;;;;5028883;28;19909;-42
2023/09/23 19:02:05;;;;;;;;;;;;;;;;;;5028426;28;19915;-42
2023/09/23 19:04:32;;;;;;;;;;;;;;;;;;5028621;28;20295;-42
2023/09/23 19:06:58;;;;;;;;;;;;;;;;;;5028200;28;19909;-42
2023/09/23 19:09:26;;;;;;;;;;;;;;;;;;5028195;28;19916;-43
2023/09/23 19:11:51;;;;;;;;;;;;;;;;;;5028605;28;19916;-42
2023/09/23 19:14:18;;;;;;;;;;;;;;;;;;5028234;28;20003;-42
2023/09/23 19:16:44;;;;;;;;;;;;;;;;;;5028037;28;19916;-42
2023/09/23 19:19:12;;;;;;;;;;;;;;;;;;5028520;28;19917;-42
2023/09/23 19:21:38;;;;;;;;;;;;;;;;;;5028708;28;19921;-42
2023/09/23 19:24:05;;;;;;;;;;;;;;;;;;5027955;28;19909;-42
2023/09/23 19:26:31;;;;;;;;;;;;;;;;;;5028074;28;19917;-42
2023/09/23 19:28:57;;;;;;;;;;;;;;;;;;5027883;28;19955;-42
2023/09/23 19:31:23;;;;;;;;;;;;;;;;;;5028107;28;19944;-42
2023/09/23 19:33:50;;;;;;;;;;;;;;;;;;5027916;28;20010;-42
2023/09/23 19:36:16;;;;;;;;;;;;;;;;;;5028051;28;20042;-42
2023/09/23 19:38:42;;;;;;;;;;;;;;;;;;5028362;28;20004;-42
2023/09/23 19:41:08;;;;;;;;;;;;;;;;;;5027692;28;20326;-42
2023/09/23 19:43:34;;;;;;;;;;;;;;;;;;5027609;28;20384;-41
2023/09/23 19:46:02;;;;;;;;;;;;;;;;;;5027691;28;19913;-42
2023/09/23 19:48:28;;;;;;;;;;;;;;;;;;5027533;28;20319;-42
2023/09/23 19:50:53;;;;;;;;;;;;;;;;;;5027765;28;19916;-43
2023/09/23 19:53:19;;;;;;;;;;;;;;;;;;5027556;28;20011;-42
2023/09/23 19:55:46;;;;;;;;;;;;;;;;;;5027470;28;19915;-42
2023/09/23 19:58:16;;;;;;;;;;;;;;;;;;5027368;28;20363;-42
2023/09/23 20:00:42;;;;;;;;;;;;;;;;;;5028101;28;19935;-42
2023/09/23 20:03:09;;;;;;;;;;;;;;;;;;5027560;28;20442;-42
2023/09/23 20:05:36;;;;;;;;;;;;;;;;;;5027431;28;19913;-42
2023/09/23 20:08:02;;;;;;;;;;;;;;;;;;5027609;28;19909;-42
2023/09/23 20:10:29;;;;;;;;;;;;;;;;;;5027517;28;19909;-42
2023/09/23 20:12:55;;;;;;;;;;;;;;;;;;5027523;28;19936;-41
2023/09/23 20:15:24;;;;;;;;;;;;;;;;;;5027613;28;19909;-42
2023/09/23 20:17:56;;;;;;;;;;;;;;;;;;5027423;28;19944;-42
2023/09/23 20:20:21;;;;;;;;;;;;;;;;;;5009724;28;19913;-42
2023/09/23 20:22:47;;;;;;;;;;;;;;;;;;5027515;28;20423;-42
2023/09/23 20:25:14;;;;;;;;;;;;;;;;;;5027844;28;19909;-42
2023/09/23 20:27:40;;;;;;;;;;;;;;;;;;5027240;28;19913;-42
2023/09/23 20:30:07;;;;;;;;;;;;;;;;;;5027122;28;20351;-41
2023/09/23 20:32:33;;;;;;;;;;;;;;;;;;5027414;28;19932;-41
2023/09/23 20:34:59;;;;;;;;;;;;;;;;;;5027279;28;19909;-41
2023/09/23 20:37:25;;;;;;;;;;;;;;;;;;5027283;28;19909;-42
2023/09/23 20:39:51;;;;;;;;;;;;;;;;;;5027086;28;19909;-42
2023/09/23 20:42:17;;;;;;;;;;;;;;;;;;5027710;28;20375;-41
2023/09/23 20:44:43;;;;;;;;;;;;;;;;;;5027415;28;19909;-41
2023/09/23 20:47:11;;;;;;;;;;;;;;;;;;5027336;28;19913;-42
2023/09/23 20:49:37;;;;;;;;;;;;;;;;;;5027203;28;19916;-41
2023/09/23 20:52:03;;;;;;;;;;;;;;;;;;5027092;28;19996;-42
2023/09/23 20:54:29;;;;;;;;;;;;;;;;;;5027218;28;19909;-41
2023/09/23 20:56:59;;;;;;;;;;;;;;;;;;5026957;28;19947;-41
2023/09/23 20:59:25;;;;;;;;;;;;;;;;;;5027414;28;19952;-41
2023/09/23 21:01:50;;;;;;;;;;;;;;;;;;5026983;28;19959;-42
2023/09/23 21:04:16;;;;;;;;;;;;;;;;;;5027714;28;19952;-42
2023/09/23 21:06:42;;;;;;;;;;;;;;;;;;5009156;28;19909;-42
2023/09/23 21:09:15;;;;;;;;;;;;;;;;;;5029040;28;21067;-42
2023/09/23 21:11:42;;;;;;;;;;;;;;;;;;5030579;28;19909;-42
2023/09/23 21:14:08;;;;;;;;;;;;;;;;;;5030383;28;19917;-42
2023/09/23 21:16:33;;;;;;;;;;;;;;;;;;5030200;28;19992;-42
2023/09/23 21:18:59;;;;;;;;;;;;;;;;;;5030352;28;19930;-42
2023/09/23 21:21:25;;;;;;;;;;;;;;;;;;5030305;28;19916;-42
2023/09/23 21:23:54;;;;;;;;;;;;;;;;;;5030340;28;19909;-42
2023/09/23 21:26:23;;;;;;;;;;;;;;;;;;5029907;28;20318;-42
2023/09/23 21:28:49;;;;;;;;;;;;;;;;;;5030898;28;19909;-42
2023/09/23 21:31:15;;;;;;;;;;;;;;;;;;5030769;28;19909;-41
2023/09/23 21:33:41;;;;;;;;;;;;;;;;;;5030289;28;20395;-42
2023/09/23 21:36:07;;;;;;;;;;;;;;;;;;5034617;28;20407;-42
2023/09/23 21:38:32;;;;;;;;;;;;;;;;;;5027524;28;19913;-41
2023/09/23 21:40:58;;;;;;;;;;;;;;;;;;5027762;28;19924;-42
2023/09/23 21:43:24;;;;;;;;;;;;;;;;;;5037966;28;20414;-41
2023/09/23 21:45:52;;;;;;;;;;;;;;;;;;5028921;28;19920;-42
2023/09/23 21:48:18;;;;;;;;;;;;;;;;;;5029424;28;19913;-42
2023/09/23 21:50:44;;;;;;;;;;;;;;;;;;5031069;28;20051;-42
2023/09/23 21:53:11;;;;;;;;;;;;;;;;;;5031020;28;19920;-41
2023/09/23 21:55:37;;;;;;;;;;;;;;;;;;5010468;28;19913;-41